createdAt,value
2022-08-28T00:01:05.879Z,81.10
2022-08-28T00:03:32.544Z,81.17
2022-08-28T00:06:00.410Z,81.40
2022-08-28T00:08:27.047Z,81.80
2022-08-28T00:10:53.993Z,82.09
2022-08-28T00:13:22.941Z,81.93
2022-08-28T00:15:53.551Z,81.67
2022-08-28T00:18:20.345Z,81.87
2022-08-28T00:20:48.627Z,81.82
2022-08-28T00:23:15.572Z,82.17
2022-08-28T00:25:41.949Z,82.62
2022-08-28T00:28:10.707Z,83.03
2022-08-28T00:30:51.436Z,83.09
2022-08-28T00:33:27.381Z,83.47
2022-08-28T00:35:54.501Z,83.44
2022-08-28T00:38:22.064Z,83.48
2022-08-28T00:40:51.363Z,84.17
2022-08-28T00:43:45.953Z,82.74
2022-08-28T00:46:19.180Z,82.44
2022-08-28T00:48:46.069Z,82.75
2022-08-28T00:51:13.960Z,83.71
2022-08-28T00:53:40.314Z,83.98
2022-08-28T00:56:13.209Z,83.98
2022-08-28T00:58:43.198Z,83.53
2022-08-28T01:01:09.567Z,83.35
2022-08-28T01:03:36.843Z,83.19
2022-08-28T01:06:03.982Z,82.84
2022-08-28T01:08:30.464Z,82.78
2022-08-28T01:10:59.222Z,82.85
2022-08-28T01:13:26.318Z,83.37
2022-08-28T01:15:54.611Z,83.66
2022-08-28T01:18:21.827Z,84.30
2022-08-28T01:21:01.234Z,84.36
2022-08-28T01:23:49.602Z,84.39
2022-08-28T01:26:15.998Z,84.39
2022-08-28T01:28:42.348Z,85.03
2022-08-28T01:31:13.542Z,85.31
2022-08-28T01:33:42.574Z,85.91
2022-08-28T01:36:09.296Z,86.07
2022-08-28T01:38:37.190Z,86.35
2022-08-28T01:41:03.558Z,86.38
2022-08-28T01:43:29.898Z,86.80
2022-08-28T01:45:59.962Z,87.10
2022-08-28T01:48:26.671Z,86.92
2022-08-28T01:50:53.027Z,87.02
2022-08-28T01:53:24.758Z,86.96
2022-08-28T01:55:53.454Z,87.06
2022-08-28T01:58:21.122Z,87.29
2022-08-28T02:00:47.704Z,87.30
2022-08-28T02:03:14.736Z,87.40
2022-08-28T02:05:41.718Z,87.42
2022-08-28T02:08:08.512Z,87.78
2022-08-28T02:10:38.073Z,87.57
2022-08-28T02:13:05.157Z,87.28
2022-08-28T02:15:33.941Z,87.24
2022-08-28T02:18:00.949Z,87.42
2022-08-28T02:20:28.821Z,87.85
2022-08-28T02:22:57.133Z,88.15
2022-08-28T02:25:24.722Z,88.35
2022-08-28T02:27:51.083Z,88.07
2022-08-28T02:30:18.081Z,88.33
2022-08-28T02:32:45.677Z,88.30
2022-08-28T02:35:16.749Z,88.71
2022-08-28T02:37:43.416Z,88.68
2022-08-28T02:40:11.641Z,88.41
2022-08-28T02:42:37.991Z,88.69
2022-08-28T02:45:04.828Z,89.01
2022-08-28T02:47:31.178Z,88.94
2022-08-28T02:49:57.571Z,89.28
2022-08-28T02:52:23.898Z,89.13
2022-08-28T02:54:50.594Z,88.70
2022-08-28T02:57:16.931Z,88.73
2022-08-28T02:59:43.316Z,88.97
2022-08-28T03:02:09.872Z,88.74
2022-08-28T03:04:37.561Z,88.84
2022-08-28T03:07:05.456Z,88.84
2022-08-28T03:09:31.774Z,88.74
2022-08-28T03:11:58.178Z,88.57
2022-08-28T03:14:24.619Z,88.76
2022-08-28T03:16:51.019Z,88.60
2022-08-28T03:19:17.373Z,88.80
2022-08-28T03:21:43.976Z,89.09
2022-08-28T03:24:10.417Z,88.98
2022-08-28T03:26:41.471Z,88.67
2022-08-28T03:29:07.827Z,88.53
2022-08-28T03:31:34.179Z,88.38
2022-08-28T03:34:00.634Z,88.46
2022-08-28T03:36:28.388Z,88.61
2022-08-28T03:38:59.565Z,88.73
2022-08-28T03:41:28.746Z,88.65
2022-08-28T03:43:57.141Z,88.65
2022-08-28T03:46:24.871Z,88.33
2022-08-28T03:48:52.473Z,88.49
2022-08-28T03:51:29.790Z,88.12
2022-08-28T03:54:00.345Z,87.82
2022-08-28T03:56:28.772Z,87.47
2022-08-28T03:58:58.151Z,87.69
2022-08-28T04:01:25.513Z,87.71
2022-08-28T04:03:51.914Z,87.99
2022-08-28T04:06:18.332Z,86.74
2022-08-28T04:08:44.694Z,85.94
2022-08-28T04:11:11.035Z,85.25
2022-08-28T04:13:37.387Z,84.11
2022-08-28T04:16:07.683Z,83.99
2022-08-28T04:18:34.052Z,84.22
2022-08-28T04:21:02.644Z,84.19
2022-08-28T04:23:29.702Z,84.68
2022-08-28T04:25:56.202Z,84.49
2022-08-28T04:28:23.541Z,84.58
2022-08-28T04:30:54.426Z,84.86
2022-08-28T04:33:22.221Z,84.98
2022-08-28T04:35:48.593Z,84.77
2022-08-28T04:38:15.124Z,84.64
2022-08-28T04:40:42.365Z,84.53
2022-08-28T04:43:09.227Z,85.23
2022-08-28T04:45:42.699Z,86.08
2022-08-28T04:48:10.600Z,86.71
2022-08-28T04:50:48.561Z,87.52
2022-08-28T04:53:19.747Z,87.60
2022-08-28T04:55:55.087Z,87.87
2022-08-28T04:58:24.145Z,87.41
2022-08-28T05:00:51.962Z,86.99
2022-08-28T05:03:18.379Z,86.32
2022-08-28T05:05:46.978Z,85.03
2022-08-28T05:08:15.037Z,83.75
2022-08-28T05:10:42.725Z,82.67
2022-08-28T05:13:13.179Z,82.00
2022-08-28T05:15:41.325Z,82.52
2022-08-28T05:18:08.384Z,83.17
2022-08-28T05:20:39.703Z,82.63
2022-08-28T05:23:06.895Z,82.68
2022-08-28T05:25:38.263Z,82.73
2022-08-28T05:28:09.864Z,82.44
2022-08-28T05:30:40.363Z,82.08
2022-08-28T05:33:07.995Z,81.03
2022-08-28T05:35:38.761Z,81.15
2022-08-28T05:38:06.177Z,80.94
2022-08-28T05:40:33.067Z,81.22
2022-08-28T05:42:59.456Z,80.39
2022-08-28T05:45:25.870Z,79.40
2022-08-28T05:47:52.208Z,78.93
2022-08-28T05:50:19.023Z,78.88
2022-08-28T05:52:45.391Z,78.13
2022-08-28T05:55:12.921Z,77.75
2022-08-28T05:57:40.239Z,78.16
2022-08-28T06:00:07.711Z,78.07
2022-08-28T06:02:34.063Z,78.13
2022-08-28T06:05:01.173Z,77.83
2022-08-28T06:07:27.596Z,76.48
2022-08-28T06:09:53.946Z,75.96
2022-08-28T06:12:20.433Z,76.34
2022-08-28T06:14:46.837Z,75.64
2022-08-28T06:17:13.292Z,74.46
2022-08-28T06:19:41.705Z,74.47
2022-08-28T06:22:08.821Z,74.26
2022-08-28T06:24:35.575Z,74.75
2022-08-28T06:27:02.045Z,73.15
2022-08-28T06:29:28.537Z,71.01
2022-08-28T06:31:57.323Z,70.87
2022-08-28T06:34:23.900Z,70.97
2022-08-28T06:36:53.832Z,71.67
2022-08-28T06:39:21.196Z,71.07
2022-08-28T06:41:47.585Z,70.64
2022-08-28T06:44:16.723Z,69.89
2022-08-28T06:46:43.071Z,69.20
2022-08-28T06:49:09.419Z,68.89
2022-08-28T06:51:36.115Z,69.51
2022-08-28T06:54:03.670Z,69.86
2022-08-28T06:56:30.165Z,69.61
2022-08-28T06:58:58.250Z,68.88
2022-08-28T07:01:30.672Z,68.81
2022-08-28T07:04:00.322Z,69.01
2022-08-28T07:06:27.868Z,68.66
2022-08-28T07:08:54.210Z,66.69
2022-08-28T07:11:26.012Z,67.23
2022-08-28T07:13:53.669Z,66.91
2022-08-28T07:16:22.185Z,67.89
2022-08-28T07:18:48.618Z,68.06
2022-08-28T07:21:15.087Z,67.85
2022-08-28T07:23:44.360Z,65.92
2022-08-28T07:26:14.667Z,67.50
2022-08-28T07:28:41.045Z,66.56
2022-08-28T07:31:10.250Z,66.26
2022-08-28T07:33:38.079Z,67.43
2022-08-28T07:36:07.042Z,68.92
2022-08-28T07:38:33.470Z,68.34
2022-08-28T07:40:59.876Z,69.10
2022-08-28T07:43:26.217Z,68.91
2022-08-28T07:46:04.667Z,68.15
2022-08-28T07:48:31.075Z,69.34
2022-08-28T07:50:57.407Z,68.12
2022-08-28T07:53:23.751Z,65.71
2022-08-28T07:55:50.624Z,66.07
2022-08-28T07:58:18.747Z,66.62
2022-08-28T08:00:45.151Z,64.59
2022-08-28T08:03:11.838Z,64.32
2022-08-28T08:05:38.228Z,63.64
2022-08-28T08:08:04.658Z,61.59
2022-08-28T08:10:33.916Z,62.61
2022-08-28T08:13:01.074Z,62.95
2022-08-28T08:15:31.093Z,62.76
2022-08-28T08:17:57.759Z,61.70
2022-08-28T08:20:24.097Z,62.45
2022-08-28T08:22:50.427Z,63.53
2022-08-28T08:25:16.783Z,61.96
2022-08-28T08:27:43.276Z,63.05
2022-08-28T08:30:10.760Z,61.89
2022-08-28T08:32:37.113Z,63.27
2022-08-28T08:35:03.559Z,61.56
2022-08-28T08:37:29.911Z,61.08
2022-08-28T08:39:56.362Z,59.99
2022-08-28T08:42:26.000Z,58.22
2022-08-28T08:44:55.055Z,58.86
2022-08-28T08:47:38.414Z,58.58
2022-08-28T08:50:10.714Z,57.52
2022-08-28T08:52:44.925Z,58.54
2022-08-28T08:55:24.994Z,59.20
2022-08-28T08:57:56.771Z,60.56
2022-08-28T09:00:23.495Z,58.56
2022-08-28T09:02:52.967Z,56.92
2022-08-28T09:05:24.022Z,57.11
2022-08-28T09:07:56.727Z,56.97
2022-08-28T09:10:25.346Z,56.04
2022-08-28T09:13:02.338Z,54.55
2022-08-28T09:15:33.997Z,55.79
2022-08-28T09:18:23.447Z,55.44
2022-08-28T09:20:52.499Z,54.68
2022-08-28T09:23:21.183Z,53.23
2022-08-28T09:25:59.789Z,55.74
2022-08-28T09:28:31.411Z,56.46
2022-08-28T09:31:06.355Z,55.23
2022-08-28T09:33:47.949Z,54.30
2022-08-28T09:36:33.587Z,53.18
2022-08-28T09:39:24.791Z,53.51
2022-08-28T09:42:00.596Z,50.10
2022-08-28T09:44:27.003Z,52.71
2022-08-28T09:46:53.356Z,52.68
2022-08-28T09:49:29.379Z,51.98
2022-08-28T09:51:58.105Z,53.95
2022-08-28T09:54:32.757Z,54.30
2022-08-28T09:56:59.950Z,53.55
2022-08-28T09:59:28.234Z,51.75
2022-08-28T10:02:15.325Z,52.21
2022-08-28T10:05:03.035Z,55.05
2022-08-28T10:07:47.623Z,54.57
2022-08-28T10:10:27.284Z,53.67
2022-08-28T10:13:09.818Z,53.35
2022-08-28T10:16:16.618Z,51.90
2022-08-28T10:19:01.957Z,51.19
2022-08-28T10:21:38.336Z,49.38
2022-08-28T10:24:12.730Z,49.40
2022-08-28T10:26:55.958Z,51.00
2022-08-28T10:29:46.695Z,51.74
2022-08-28T10:32:31.799Z,51.49
2022-08-28T10:35:16.786Z,51.55
2022-08-28T10:38:01.581Z,50.46
2022-08-28T10:40:32.167Z,51.01
2022-08-28T10:43:10.490Z,51.48
2022-08-28T10:45:38.064Z,48.10
2022-08-28T10:48:15.669Z,49.59
2022-08-28T10:50:50.198Z,48.99
2022-08-28T10:53:26.226Z,51.28
2022-08-28T10:56:03.990Z,50.78
2022-08-28T10:58:35.660Z,47.59
2022-08-28T11:01:07.769Z,48.67
2022-08-28T11:03:42.712Z,47.35
2022-08-28T11:06:20.182Z,47.41
2022-08-28T11:08:53.134Z,46.72
2022-08-28T11:11:45.047Z,46.93
2022-08-28T11:14:33.927Z,46.57
2022-08-28T11:17:30.958Z,47.02
2022-08-28T11:20:09.624Z,47.10
2022-08-28T11:22:42.074Z,46.08
2022-08-28T11:25:26.244Z,44.76
2022-08-28T11:28:20.389Z,43.85
2022-08-28T11:31:02.535Z,47.07
2022-08-28T11:33:47.989Z,47.82
2022-08-28T11:36:20.321Z,48.10
2022-08-28T11:38:52.692Z,48.33
2022-08-28T11:41:23.332Z,45.03
2022-08-28T11:43:59.462Z,45.01
2022-08-28T11:46:27.632Z,46.60
2022-08-28T11:48:57.105Z,46.52
2022-08-28T11:51:51.759Z,47.03
2022-08-28T11:54:40.076Z,46.90
2022-08-28T11:57:17.534Z,47.32
2022-08-28T12:00:06.867Z,45.81
2022-08-28T12:02:48.523Z,48.33
2022-08-28T12:05:14.819Z,48.04
2022-08-28T12:07:47.238Z,47.53
2022-08-28T12:10:22.790Z,45.92
2022-08-28T12:12:52.529Z,46.45
2022-08-28T12:15:38.867Z,45.31
2022-08-28T12:18:11.239Z,45.79
2022-08-28T12:20:46.747Z,47.04
2022-08-28T12:23:37.043Z,45.36
2022-08-28T12:26:17.923Z,45.74
2022-08-28T12:28:52.251Z,44.00
2022-08-28T12:31:44.673Z,45.61
2022-08-28T12:34:38.006Z,43.95
2022-08-28T12:37:07.514Z,45.43
2022-08-28T12:39:33.978Z,45.51
2022-08-28T12:42:02.255Z,46.81
2022-08-28T12:44:31.877Z,45.22
2022-08-28T12:46:58.976Z,45.28
2022-08-28T12:49:34.621Z,44.59
2022-08-28T12:52:20.179Z,45.13
2022-08-28T12:54:48.518Z,45.81
2022-08-28T12:57:18.576Z,44.33
2022-08-28T12:59:47.448Z,44.03
2022-08-28T13:02:27.365Z,43.27
2022-08-28T13:05:09.233Z,42.27
2022-08-28T13:07:40.228Z,42.53
2022-08-28T13:10:31.464Z,41.76
2022-08-28T13:13:22.615Z,42.56
2022-08-28T13:15:53.003Z,42.71
2022-08-28T13:18:37.749Z,43.85
2022-08-28T13:21:32.598Z,44.46
2022-08-28T13:24:01.277Z,42.83
2022-08-28T13:26:33.131Z,43.71
2022-08-28T13:29:02.211Z,44.57
2022-08-28T13:31:33.024Z,43.13
2022-08-28T13:34:17.599Z,41.90
2022-08-28T13:36:47.467Z,42.33
2022-08-28T13:39:16.514Z,40.98
2022-08-28T13:41:45.747Z,41.75
2022-08-28T13:44:24.819Z,41.71
2022-08-28T13:46:51.178Z,39.83
2022-08-28T13:49:18.198Z,39.76
2022-08-28T13:51:44.578Z,40.34
2022-08-28T13:54:10.917Z,43.14
2022-08-28T13:56:39.282Z,43.19
2022-08-28T13:59:05.629Z,43.81
2022-08-28T14:01:40.098Z,42.79
2022-08-28T14:04:08.641Z,41.74
2022-08-28T14:06:34.986Z,41.39
2022-08-28T14:09:01.318Z,41.10
2022-08-28T14:11:27.676Z,40.79
2022-08-28T14:13:55.239Z,41.96
2022-08-28T14:16:25.765Z,40.25
2022-08-28T14:18:53.145Z,41.30
2022-08-28T14:21:19.748Z,41.29
2022-08-28T14:23:46.087Z,40.20
2022-08-28T14:26:12.420Z,40.07
2022-08-28T14:28:38.762Z,40.07
2022-08-28T14:31:05.812Z,40.23
2022-08-28T14:33:32.412Z,38.71
2022-08-28T14:36:03.601Z,39.60
2022-08-28T14:38:30.083Z,39.51
2022-08-28T14:40:56.402Z,39.54
2022-08-28T14:43:22.743Z,38.54
2022-08-28T14:45:50.519Z,39.82
2022-08-28T14:48:18.771Z,39.86
2022-08-28T14:50:48.992Z,40.64
2022-08-28T14:53:16.600Z,40.49
2022-08-28T14:55:46.060Z,40.66
2022-08-28T14:58:13.307Z,41.10
2022-08-28T15:00:47.085Z,40.57
2022-08-28T15:03:14.343Z,39.23
2022-08-28T15:05:41.168Z,40.83
2022-08-28T15:08:16.383Z,41.88
2022-08-28T15:10:43.741Z,42.68
2022-08-28T15:13:10.985Z,42.18
2022-08-28T15:15:38.991Z,43.08
2022-08-28T15:18:06.809Z,42.98
2022-08-28T15:20:40.688Z,41.90
2022-08-28T15:23:07.264Z,42.62
2022-08-28T15:25:33.631Z,42.20
2022-08-28T15:28:00.025Z,41.21
2022-08-28T15:30:26.585Z,41.88
2022-08-28T15:32:52.938Z,40.75
2022-08-28T15:35:19.280Z,41.03
2022-08-28T15:37:45.671Z,42.46
2022-08-28T15:40:12.075Z,42.88
2022-08-28T15:42:38.406Z,42.56
2022-08-28T15:45:05.278Z,43.37
2022-08-28T15:47:31.599Z,43.32
2022-08-28T15:49:57.960Z,42.17
2022-08-28T15:52:24.289Z,41.97
2022-08-28T15:54:50.756Z,41.82
2022-08-28T15:57:17.556Z,41.40
2022-08-28T15:59:50.052Z,42.01
2022-08-28T16:02:20.947Z,40.99
2022-08-28T16:04:48.830Z,41.12
2022-08-28T16:07:16.089Z,42.70
2022-08-28T16:09:42.527Z,42.24
2022-08-28T16:12:08.929Z,41.78
2022-08-28T16:14:35.263Z,41.97
2022-08-28T16:17:47.069Z,42.53
2022-08-28T16:19:48.422Z,42.47
2022-08-28T16:22:14.779Z,42.80
2022-08-28T16:24:42.027Z,41.83
2022-08-28T16:27:13.142Z,42.14
2022-08-28T16:29:53.000Z,41.70
2022-08-28T16:32:19.879Z,42.50
2022-08-28T16:34:46.231Z,41.82
2022-08-28T16:37:13.467Z,42.23
2022-08-28T16:39:45.878Z,42.70
2022-08-28T16:42:12.204Z,42.67
2022-08-28T16:44:38.621Z,42.75
2022-08-28T16:47:05.094Z,42.87
2022-08-28T16:49:31.498Z,42.65
2022-08-28T16:51:57.831Z,42.75
2022-08-28T16:54:24.217Z,43.09
2022-08-28T16:56:50.554Z,44.00
2022-08-28T16:59:16.907Z,43.48
2022-08-28T17:01:44.142Z,43.49
2022-08-28T17:04:11.319Z,43.92
2022-08-28T17:06:37.666Z,43.98
2022-08-28T17:09:04.098Z,44.46
2022-08-28T17:11:30.510Z,43.89
2022-08-28T17:13:58.473Z,44.22
2022-08-28T17:16:26.837Z,44.59
2022-08-28T17:18:53.291Z,44.77
2022-08-28T17:21:21.811Z,45.24
2022-08-28T17:23:48.559Z,45.04
2022-08-28T17:26:15.050Z,45.21
2022-08-28T17:28:42.604Z,45.84
2022-08-28T17:31:09.716Z,45.01
2022-08-28T17:33:37.951Z,45.49
2022-08-28T17:36:06.755Z,45.24
2022-08-28T17:38:45.257Z,45.62
2022-08-28T17:41:11.609Z,45.44
2022-08-28T17:43:38.551Z,44.74
2022-08-28T17:46:05.803Z,45.43
2022-08-28T17:48:32.219Z,44.85
2022-08-28T17:50:59.127Z,45.30
2022-08-28T17:53:27.832Z,45.43
2022-08-28T17:55:54.755Z,45.54
2022-08-28T17:58:21.099Z,46.01
2022-08-28T18:00:47.452Z,45.97
2022-08-28T18:03:13.850Z,45.96
2022-08-28T18:05:40.216Z,46.57
2022-08-28T18:08:07.675Z,46.91
2022-08-28T18:10:35.093Z,47.62
2022-08-28T18:13:03.407Z,47.97
2022-08-28T18:15:29.803Z,47.58
2022-08-28T18:17:56.409Z,47.81
2022-08-28T18:20:22.964Z,48.48
2022-08-28T18:22:49.687Z,48.57
2022-08-28T18:25:16.918Z,48.65
2022-08-28T18:27:43.272Z,48.70
2022-08-28T18:30:10.216Z,48.86
2022-08-28T18:32:36.561Z,49.04
2022-08-28T18:35:02.987Z,49.42
2022-08-28T18:37:29.324Z,49.52
2022-08-28T18:39:55.696Z,49.80
2022-08-28T18:42:22.701Z,49.99
2022-08-28T18:44:49.041Z,50.25
2022-08-28T18:47:15.387Z,50.57
2022-08-28T18:49:41.729Z,50.75
2022-08-28T18:52:08.151Z,51.16
2022-08-28T18:54:34.487Z,51.60
2022-08-28T18:57:04.362Z,51.62
2022-08-28T18:59:32.004Z,51.88
2022-08-28T19:01:58.499Z,52.44
2022-08-28T19:04:24.934Z,52.80
2022-08-28T19:06:51.285Z,53.06
2022-08-28T19:09:20.169Z,53.77
2022-08-28T19:11:47.156Z,53.68
2022-08-28T19:14:13.507Z,54.25
2022-08-28T19:16:39.932Z,54.17
2022-08-28T19:19:06.294Z,54.60
2022-08-28T19:21:35.345Z,54.87
2022-08-28T19:24:01.934Z,55.33
2022-08-28T19:26:28.514Z,55.96
2022-08-28T19:31:25.931Z,56.33
2022-08-28T19:33:53.334Z,56.40
2022-08-28T19:36:19.995Z,56.97
2022-08-28T19:38:46.439Z,57.19
2022-08-28T19:41:13.139Z,57.50
2022-08-28T19:43:42.906Z,57.54
2022-08-28T19:46:18.629Z,57.99
2022-08-28T19:48:47.942Z,58.29
2022-08-28T19:51:17.486Z,58.23
2022-08-28T19:53:45.589Z,58.42
2022-08-28T19:56:11.975Z,58.50
2022-08-28T19:58:38.350Z,59.04
2022-08-28T20:01:05.388Z,59.34
2022-08-28T20:03:32.334Z,59.75
2022-08-28T20:06:00.725Z,59.74
2022-08-28T20:08:27.076Z,60.01
2022-08-28T20:10:53.432Z,60.16
2022-08-28T20:13:19.809Z,60.57
2022-08-28T20:15:47.537Z,60.94
2022-08-28T20:18:14.039Z,61.59
2022-08-28T20:20:44.409Z,61.15
2022-08-28T20:23:10.772Z,61.14
2022-08-28T20:25:37.773Z,60.89
2022-08-28T20:28:04.594Z,60.69
2022-08-28T20:30:30.969Z,61.08
2022-08-28T20:32:57.838Z,61.10
2022-08-28T20:35:24.490Z,61.05
2022-08-28T20:37:53.799Z,61.55
2022-08-28T20:40:21.053Z,61.81
2022-08-28T20:42:47.639Z,62.06
2022-08-28T20:45:15.573Z,62.30
2022-08-28T20:47:42.181Z,62.70
2022-08-28T20:50:09.339Z,63.14
2022-08-28T20:52:35.780Z,63.29
2022-08-28T20:55:02.237Z,63.46
2022-08-28T20:57:28.582Z,64.14
2022-08-28T20:59:54.932Z,64.53
2022-08-28T21:02:24.301Z,64.74
2022-08-28T21:04:52.302Z,66.22
2022-08-28T21:07:21.871Z,66.90
2022-08-28T21:10:06.005Z,67.47
2022-08-28T21:12:37.297Z,67.00
2022-08-28T21:15:05.504Z,66.14
2022-08-28T21:17:31.838Z,65.81
2022-08-28T21:20:05.404Z,66.01
2022-08-28T21:22:32.957Z,65.71
2022-08-28T21:25:00.941Z,65.37
2022-08-28T21:27:27.310Z,66.07
2022-08-28T21:29:58.483Z,65.97
2022-08-28T21:32:26.482Z,68.14
2022-08-28T21:34:52.837Z,68.89
2022-08-28T21:37:19.339Z,69.44
2022-08-28T21:39:45.715Z,68.91
2022-08-28T21:42:12.037Z,69.29
2022-08-28T21:44:38.787Z,69.75
2022-08-28T21:47:05.715Z,70.50
2022-08-28T21:49:32.059Z,72.21
2022-08-28T21:51:58.398Z,72.83
2022-08-28T21:54:24.751Z,73.54
2022-08-28T21:56:58.659Z,74.50
2022-08-28T21:59:25.570Z,75.39
2022-08-28T22:01:56.662Z,75.83
2022-08-28T22:04:24.271Z,76.52
2022-08-28T22:06:50.686Z,77.14
2022-08-28T22:09:17.098Z,76.92
2022-08-28T22:11:43.449Z,76.78
2022-08-28T22:14:09.837Z,77.02
2022-08-28T22:16:36.430Z,76.84
2022-08-28T22:19:03.272Z,77.30
2022-08-28T22:21:30.370Z,77.31
2022-08-28T22:23:56.976Z,77.76
2022-08-28T22:26:23.853Z,78.47
2022-08-28T22:28:50.222Z,78.71
2022-08-28T22:31:16.573Z,78.96
2022-08-28T22:33:44.502Z,79.01
2022-08-28T22:36:11.247Z,78.76
2022-08-28T22:38:39.040Z,78.45
2022-08-28T22:41:06.986Z,78.71
2022-08-28T22:43:33.395Z,78.87
2022-08-28T22:46:00.033Z,79.28
2022-08-28T22:48:26.749Z,79.53
2022-08-28T22:51:05.133Z,79.79
2022-08-28T22:53:31.976Z,80.03
2022-08-28T22:55:58.891Z,79.48
2022-08-28T22:58:25.222Z,79.56
2022-08-28T23:00:51.606Z,79.28
2022-08-28T23:03:18.109Z,79.51
2022-08-28T23:05:44.666Z,79.40
2022-08-28T23:08:11.083Z,79.47
2022-08-28T23:10:57.885Z,78.79
2022-08-28T23:13:23.779Z,78.98
2022-08-28T23:15:51.147Z,79.12
2022-08-28T23:18:17.902Z,79.09
2022-08-28T23:20:44.783Z,79.49
2022-08-28T23:23:11.694Z,79.55
2022-08-28T23:25:38.039Z,79.30
2022-08-28T23:28:06.564Z,79.27
2022-08-28T23:30:33.314Z,79.22
2022-08-28T23:32:59.812Z,79.17
2022-08-28T23:35:26.197Z,79.36
2022-08-28T23:37:52.623Z,79.77
2022-08-28T23:40:21.546Z,79.51
2022-08-28T23:42:48.704Z,79.02
2022-08-28T23:45:16.165Z,78.99
2022-08-28T23:47:43.139Z,78.69
2022-08-28T23:50:14.289Z,78.65
2022-08-28T23:52:41.503Z,79.23
2022-08-28T23:55:11.396Z,79.93
2022-08-28T23:57:38.187Z,80.14
